Time;durP1;ratioP1;P1;durP2;ratioP2;P2;SDS_P1;SDS_P2;PMS_P1;PMS_P2;Temp;Humidity;BMP_temperature;BMP_pressure;BME280_temperature;BME280_humidity;BME280_pressure;Samples;Min_cycle;Max_cycle;Signal;HPM_P1;HPM_P2
2023/12/11 00:01:04;;;;;;;13.02;3.75;;;19.90;57.50;;;;;;5062675;28;20543;-58
2023/12/11 00:03:30;;;;;;;12.52;3.47;;;19.90;58.30;;;;;;5079571;28;20114;-62
2023/12/11 00:05:56;;;;;;;15.90;4.25;;;19.90;58.50;;;;;;5071232;28;20107;-59
2023/12/11 00:08:21;;;;;;;13.32;3.92;;;19.90;57.90;;;;;;5079494;28;20558;-62
2023/12/11 00:10:47;;;;;;;16.20;3.85;;;19.90;58.20;;;;;;5062812;28;20060;-60
2023/12/11 00:13:13;;;;;;;13.45;3.95;;;19.90;58.30;;;;;;5069378;28;20031;-60
2023/12/11 00:15:39;;;;;;;10.25;3.72;;;19.80;57.80;;;;;;5069992;28;20031;-60
2023/12/11 00:18:05;;;;;;;14.73;3.70;;;19.80;57.80;;;;;;5070375;28;20021;-60
2023/12/11 00:20:32;;;;;;;14.18;3.38;;;19.80;57.90;;;;;;5070910;28;20399;-60
2023/12/11 00:22:58;;;;;;;12.30;3.53;;;19.80;57.80;;;;;;5058350;28;20036;-59
2023/12/11 00:25:26;;;;;;;12.07;3.15;;;19.80;57.90;;;;;;5070306;28;20024;-59
2023/12/11 00:27:52;;;;;;;20.73;4.43;;;19.80;57.90;;;;;;5070456;28;20464;-58
2023/12/11 00:30:18;;;;;;;13.75;3.60;;;19.70;57.80;;;;;;5068968;28;20116;-59
2023/12/11 00:32:44;;;;;;;9.02;3.35;;;19.70;57.90;;;;;;5069698;28;20027;-60
2023/12/11 00:35:09;;;;;;;14.95;3.47;;;19.80;57.80;;;;;;5070251;28;20024;-59
2023/12/11 00:37:35;;;;;;;11.77;3.30;;;19.70;57.90;;;;;;5066216;28;20032;-57
2023/12/11 00:40:01;;;;;;;10.43;3.30;;;19.70;57.80;;;;;;5070278;28;20020;-58
2023/12/11 00:42:27;;;;;;;11.90;3.60;;;19.70;57.80;;;;;;5052381;28;20387;-55
2023/12/11 00:44:53;;;;;;;12.60;3.55;;;19.70;57.80;;;;;;5069663;28;20029;-59
2023/12/11 00:47:18;;;;;;;10.77;3.20;;;19.70;57.80;;;;;;5068059;28;20048;-60
2023/12/11 00:49:44;;;;;;;7.65;3.60;;;19.70;57.80;;;;;;5072154;28;20027;-58
2023/12/11 00:52:10;;;;;;;10.40;3.40;;;19.70;57.80;;;;;;5071854;28;20487;-57
2023/12/11 00:54:36;;;;;;;13.05;3.45;;;19.70;57.90;;;;;;5074946;28;20078;-58
2023/12/11 00:57:02;;;;;;;8.02;3.22;;;19.70;57.70;;;;;;5073277;28;20029;-57
2023/12/11 00:59:27;;;;;;;9.32;3.28;;;19.70;57.80;;;;;;5068817;28;20025;-57
2023/12/11 01:01:53;;;;;;;8.73;3.13;;;19.70;57.80;;;;;;5074023;28;20024;-58
2023/12/11 01:04:19;;;;;;;8.98;3.38;;;19.70;58.40;;;;;;5074061;28;20027;-57
2023/12/11 01:06:45;;;;;;;13.27;3.20;;;19.70;57.80;;;;;;5073050;28;20455;-58
2023/12/11 01:09:12;;;;;;;11.55;3.00;;;19.60;57.70;;;;;;5066930;28;20029;-57
2023/12/11 01:11:39;;;;;;;11.45;2.80;;;19.70;57.90;;;;;;5072294;28;20032;-59
2023/12/11 01:14:05;;;;;;;9.60;2.90;;;19.70;57.80;;;;;;5071989;28;20020;-60
2023/12/11 01:16:31;;;;;;;6.40;3.15;;;19.70;57.90;;;;;;5073356;28;20044;-60
2023/12/11 01:18:57;;;;;;;9.15;3.08;;;19.70;57.80;;;;;;5076980;28;20028;-59
2023/12/11 01:21:22;;;;;;;9.65;3.60;;;19.60;57.70;;;;;;5077902;28;20437;-60
2023/12/11 01:23:48;;;;;;;9.13;2.78;;;19.70;57.80;;;;;;5074325;28;20498;-58
2023/12/11 01:26:14;;;;;;;7.53;2.97;;;19.60;57.70;;;;;;5073787;28;20089;-59
2023/12/11 01:28:40;;;;;;;6.70;2.65;;;19.60;57.80;;;;;;5073435;28;20032;-59
2023/12/11 01:31:06;;;;;;;6.78;2.72;;;19.60;57.80;;;;;;5071916;28;20029;-57
2023/12/11 01:33:32;;;;;;;8.75;2.47;;;19.70;58.10;;;;;;5074005;28;20028;-59
2023/12/11 01:35:58;;;;;;;10.05;2.95;;;19.60;57.30;;;;;;5073308;28;20055;-59
2023/12/11 01:38:24;;;;;;;8.88;2.88;;;19.70;57.60;;;;;;5068097;28;20037;-57
2023/12/11 01:40:50;;;;;;;8.00;2.90;;;19.70;57.30;;;;;;5065804;28;20062;-57
2023/12/11 01:43:17;;;;;;;6.32;2.60;;;19.70;57.10;;;;;;5073339;28;20500;-59
2023/12/11 01:45:44;;;;;;;8.00;3.17;;;19.70;57.30;;;;;;5073287;28;20056;-58
2023/12/11 01:48:11;;;;;;;8.65;3.20;;;19.70;57.10;;;;;;5072706;28;20025;-59
2023/12/11 01:50:38;;;;;;;8.00;2.90;;;19.70;56.90;;;;;;5072027;28;20123;-58
2023/12/11 01:53:05;;;;;;;10.35;2.85;;;19.70;56.90;;;;;;5073919;28;20029;-59
2023/12/11 01:55:33;;;;;;;11.68;2.75;;;19.70;56.90;;;;;;5073814;28;20025;-57
2023/12/11 01:58:01;;;;;;;7.60;2.92;;;19.70;56.90;;;;;;5072350;28;20024;-59
2023/12/11 02:00:27;;;;;;;9.07;2.80;;;19.70;57.00;;;;;;5072777;28;20125;-59
2023/12/11 02:02:53;;;;;;;10.05;3.03;;;19.70;56.80;;;;;;5072648;28;20036;-58
2023/12/11 02:05:19;;;;;;;9.13;2.58;;;19.70;56.70;;;;;;5072215;28;20032;-59
2023/12/11 02:07:45;;;;;;;8.20;2.53;;;19.70;56.70;;;;;;5073014;28;20036;-58
2023/12/11 02:10:11;;;;;;;7.45;2.45;;;19.70;56.70;;;;;;5072224;28;20035;-59
2023/12/11 02:12:39;;;;;;;10.15;2.50;;;19.70;56.80;;;;;;5071756;28;20764;-58
2023/12/11 02:15:06;;;;;;;9.20;2.65;;;19.70;56.70;;;;;;5072084;28;20016;-59
2023/12/11 02:17:32;;;;;;;7.15;2.60;;;19.70;56.60;;;;;;5071960;28;20402;-58
2023/12/11 02:19:58;;;;;;;6.72;2.50;;;19.60;56.60;;;;;;5071350;28;20028;-56
2023/12/11 02:22:24;;;;;;;7.72;2.65;;;19.70;56.60;;;;;;5081425;28;20021;-56
2023/12/11 02:24:56;;;;;;;6.38;2.47;;;19.70;56.70;;;;;;5065372;28;20549;-58
2023/12/11 02:27:23;;;;;;;10.35;2.80;;;19.70;56.70;;;;;;5073334;28;20100;-57
2023/12/11 02:29:50;;;;;;;7.53;2.70;;;19.60;56.60;;;;;;5072468;28;20112;-57
2023/12/11 02:32:16;;;;;;;7.80;2.58;;;19.60;56.60;;;;;;5068299;28;20112;-59
2023/12/11 02:34:42;;;;;;;5.88;2.30;;;19.60;56.50;;;;;;5071400;28;20031;-55
2023/12/11 02:37:08;;;;;;;7.40;2.42;;;19.60;56.60;;;;;;5072153;28;20543;-59
2023/12/11 02:39:34;;;;;;;7.65;2.33;;;19.60;58.10;;;;;;5070831;28;20380;-60
2023/12/11 02:41:59;;;;;;;5.38;2.20;;;19.60;58.40;;;;;;5069601;28;20518;-58
2023/12/11 02:44:25;;;;;;;7.90;2.88;;;19.60;58.00;;;;;;5071285;28;20028;-58
2023/12/11 02:46:51;;;;;;;10.48;2.58;;;19.60;58.00;;;;;;5070866;28;20059;-60
2023/12/11 02:49:17;;;;;;;7.05;2.55;;;19.60;57.40;;;;;;5071259;28;20055;-59
2023/12/11 02:51:43;;;;;;;6.55;2.38;;;19.60;58.60;;;;;;5053251;28;20024;-60
2023/12/11 02:54:08;;;;;;;6.32;2.30;;;19.50;57.50;;;;;;5072560;28;20035;-60
2023/12/11 02:56:38;;;;;;;4.75;2.33;;;19.50;58.10;;;;;;5072724;28;20101;-58
2023/12/11 02:59:04;;;;;;;8.18;2.50;;;19.50;58.20;;;;;;5069412;28;20021;-59
2023/12/11 03:01:30;;;;;;;6.32;2.65;;;19.50;57.70;;;;;;5071624;28;20032;-59
2023/12/11 03:03:56;;;;;;;7.57;2.35;;;19.50;58.50;;;;;;5072001;28;20036;-59
2023/12/11 03:06:22;;;;;;;6.70;2.33;;;19.50;57.80;;;;;;5070312;28;20028;-57
2023/12/11 03:08:47;;;;;;;5.63;2.30;;;19.50;57.80;;;;;;5071775;28;20029;-56
2023/12/11 03:11:13;;;;;;;4.05;2.13;;;19.50;58.00;;;;;;5069539;28;20036;-60
2023/12/11 03:13:39;;;;;;;8.35;2.58;;;19.50;58.50;;;;;;5071306;28;20032;-60
2023/12/11 03:16:05;;;;;;;8.65;2.35;;;19.50;58.40;;;;;;5070026;28;20024;-60
2023/12/11 03:18:31;;;;;;;9.18;2.40;;;19.50;57.60;;;;;;5071690;28;20078;-58
2023/12/11 03:20:57;;;;;;;6.05;2.30;;;19.50;57.60;;;;;;5068347;28;20115;-58
2023/12/11 03:23:23;;;;;;;4.68;2.08;;;19.50;58.60;;;;;;5080301;28;20028;-59
2023/12/11 03:25:49;;;;;;;6.68;2.08;;;19.50;57.80;;;;;;5072109;28;20020;-59
2023/12/11 03:28:14;;;;;;;12.93;2.70;;;19.50;57.90;;;;;;5071157;28;20025;-55
2023/12/11 03:30:40;;;;;;;8.20;2.97;;;19.50;57.90;;;;;;5070800;28;20032;-57
2023/12/11 03:33:06;;;;;;;4.95;2.10;;;19.50;57.70;;;;;;5066447;28;20227;-57
2023/12/11 03:35:32;;;;;;;7.88;2.20;;;19.50;57.70;;;;;;5067702;28;20100;-59
2023/12/11 03:37:58;;;;;;;6.45;1.90;;;19.50;57.80;;;;;;5071225;28;20024;-59
2023/12/11 03:40:23;;;;;;;5.43;2.22;;;19.40;57.40;;;;;;5069768;28;20037;-58
2023/12/11 03:42:49;;;;;;;6.70;2.20;;;19.40;57.70;;;;;;5070245;28;20036;-59
2023/12/11 03:45:15;;;;;;;4.68;2.00;;;19.50;57.90;;;;;;5071345;28;20043;-57
2023/12/11 03:47:41;;;;;;;6.97;2.58;;;19.50;58.50;;;;;;5061636;28;20025;-57
2023/12/11 03:50:07;;;;;;;6.82;2.00;;;19.50;58.50;;;;;;5065139;28;20459;-58
2023/12/11 03:52:33;;;;;;;6.47;2.10;;;19.50;58.50;;;;;;5070279;28;20028;-59
2023/12/11 03:54:59;;;;;;;4.97;2.03;;;19.50;58.10;;;;;;5053257;28;20074;-58
2023/12/11 03:57:24;;;;;;;6.78;2.22;;;19.50;58.60;;;;;;5070862;28;20433;-57
2023/12/11 03:59:50;;;;;;;8.18;2.20;;;19.50;58.00;;;;;;5070935;28;20445;-58
2023/12/11 04:02:16;;;;;;;5.78;2.10;;;19.50;58.40;;;;;;5070571;28;20090;-59
2023/12/11 04:04:42;;;;;;;7.20;2.10;;;19.50;57.90;;;;;;5053211;28;20423;-58
2023/12/11 04:07:08;;;;;;;6.50;2.00;;;19.50;58.20;;;;;;5069978;28;20029;-57
2023/12/11 04:09:34;;;;;;;5.05;1.90;;;19.50;58.50;;;;;;5070855;28;20024;-56
2023/12/11 04:12:00;;;;;;;8.82;2.10;;;19.50;58.00;;;;;;5070382;28;20033;-59
2023/12/11 04:14:26;;;;;;;6.03;1.92;;;19.50;58.80;;;;;;5070755;28;20024;-59
2023/12/11 04:16:52;;;;;;;4.60;2.28;;;19.40;58.20;;;;;;5065645;28;20048;-58
2023/12/11 04:19:18;;;;;;;4.72;2.20;;;19.50;58.80;;;;;;5070061;28;20086;-56
2023/12/11 04:21:43;;;;;;;5.53;2.30;;;19.50;57.90;;;;;;5070400;28;20078;-59
2023/12/11 04:24:09;;;;;;;6.28;2.30;;;19.40;58.00;;;;;;5070492;28;20049;-58
2023/12/11 04:26:35;;;;;;;3.90;2.00;;;19.40;57.70;;;;;;5070504;28;20056;-56
2023/12/11 04:29:01;;;;;;;5.25;2.20;;;19.40;57.70;;;;;;5058450;28;20108;-58
2023/12/11 04:31:27;;;;;;;6.05;2.15;;;19.40;57.70;;;;;;5067208;28;20116;-59
2023/12/11 04:33:53;;;;;;;5.50;2.10;;;19.40;57.60;;;;;;5073729;28;20036;-58
2023/12/11 04:36:18;;;;;;;6.20;2.10;;;19.40;58.00;;;;;;5070407;28;20028;-55
2023/12/11 04:38:44;;;;;;;4.07;1.63;;;19.40;57.80;;;;;;5070444;28;20021;-58
2023/12/11 04:41:10;;;;;;;5.53;1.85;;;19.40;58.00;;;;;;5069854;28;20058;-57
2023/12/11 04:43:36;;;;;;;5.72;2.08;;;19.40;58.00;;;;;;5053258;28;20549;-56
2023/12/11 04:46:02;;;;;;;7.80;2.67;;;19.50;58.00;;;;;;5068566;28;20032;-59
2023/12/11 04:48:28;;;;;;;6.55;1.98;;;19.40;57.80;;;;;;5071403;28;20033;-58
2023/12/11 04:50:54;;;;;;;4.25;1.95;;;19.40;58.10;;;;;;5070029;28;20031;-56
2023/12/11 04:53:19;;;;;;;6.53;2.30;;;19.40;58.20;;;;;;5064197;28;20558;-58
2023/12/11 04:55:45;;;;;;;7.63;2.20;;;19.40;58.00;;;;;;5070237;28;20016;-59
2023/12/11 04:58:11;;;;;;;6.47;2.13;;;19.50;57.80;;;;;;5064763;28;20021;-58
2023/12/11 05:00:37;;;;;;;3.78;2.20;;;19.50;57.70;;;;;;5069649;28;20058;-57
2023/12/11 05:03:03;;;;;;;5.13;2.20;;;19.50;57.80;;;;;;5070036;28;20039;-59
2023/12/11 05:05:28;;;;;;;4.50;1.92;;;19.50;57.80;;;;;;5070165;28;20513;-59
2023/12/11 05:07:54;;;;;;;7.72;2.78;;;19.50;57.80;;;;;;5068477;28;20368;-59
2023/12/11 05:10:20;;;;;;;8.50;2.38;;;19.50;57.60;;;;;;5069183;28;20043;-59
2023/12/11 05:12:46;;;;;;;7.45;2.50;;;19.50;58.20;;;;;;5069951;28;20017;-59
2023/12/11 05:15:12;;;;;;;5.30;2.20;;;19.50;57.60;;;;;;5052361;28;20103;-59
2023/12/11 05:17:37;;;;;;;7.40;2.63;;;19.50;57.50;;;;;;5072609;28;20023;-59
2023/12/11 05:20:04;;;;;;;7.30;2.67;;;19.50;57.40;;;;;;5070710;28;20056;-59
2023/12/11 05:22:30;;;;;;;10.32;2.50;;;19.50;57.40;;;;;;5095408;22;20025;-57
2023/12/11 05:24:55;;;;;;;6.28;2.38;;;19.50;57.30;;;;;;5051804;28;20387;-59
2023/12/11 05:27:21;;;;;;;6.55;2.50;;;19.50;57.20;;;;;;5070145;28;20024;-55
2023/12/11 05:29:47;;;;;;;7.22;2.13;;;19.50;57.40;;;;;;5054805;28;20043;-57
2023/12/11 05:32:14;;;;;;;7.95;2.38;;;19.50;57.80;;;;;;5069370;28;20399;-56
2023/12/11 05:34:40;;;;;;;8.82;2.88;;;19.50;57.20;;;;;;5051167;28;20017;-60
2023/12/11 05:37:06;;;;;;;7.25;2.60;;;19.60;57.40;;;;;;5035774;28;20029;-60
2023/12/11 05:39:32;;;;;;;7.45;2.47;;;19.50;57.50;;;;;;5036980;28;20655;-57
2023/12/11 05:41:57;;;;;;;5.03;2.28;;;19.50;57.60;;;;;;5053330;28;20039;-60
2023/12/11 05:44:23;;;;;;;6.97;2.78;;;19.50;57.80;;;;;;5038475;28;20087;-60
2023/12/11 05:46:49;;;;;;;6.70;2.85;;;19.50;57.30;;;;;;5053567;28;20031;-56
2023/12/11 05:49:15;;;;;;;5.72;2.50;;;19.50;57.40;;;;;;5052449;28;20117;-59
2023/12/11 05:51:41;;;;;;;5.88;2.45;;;19.50;57.40;;;;;;5053472;28;20111;-60
2023/12/11 05:54:06;;;;;;;6.45;2.38;;;19.60;57.50;;;;;;5053894;28;20104;-59
2023/12/11 05:56:33;;;;;;;5.95;2.40;;;19.50;57.50;;;;;;5052237;28;20485;-55
2023/12/11 05:58:59;;;;;;;6.85;2.67;;;19.50;57.40;;;;;;5035392;28;20029;-59
2023/12/11 06:01:26;;;;;;;6.07;2.40;;;19.60;57.70;;;;;;5052164;28;20052;-57
2023/12/11 06:03:51;;;;;;;7.03;2.90;;;19.60;57.60;;;;;;5053052;28;20075;-58
2023/12/11 06:06:17;;;;;;;6.88;2.65;;;19.50;57.70;;;;;;5052713;28;20036;-57
2023/12/11 06:08:44;;;;;;;6.90;3.00;;;19.50;57.60;;;;;;5052125;28;20120;-59
2023/12/11 06:11:10;;;;;;;6.60;2.70;;;19.50;57.60;;;;;;5052059;28;20067;-60
2023/12/11 06:13:36;;;;;;;7.40;2.75;;;19.50;57.70;;;;;;5052253;28;20520;-58
2023/12/11 06:16:02;;;;;;;6.32;2.60;;;19.50;57.60;;;;;;5052954;28;20057;-57
2023/12/11 06:18:28;;;;;;;7.78;2.97;;;19.60;57.40;;;;;;5052095;28;20031;-59
2023/12/11 06:20:54;;;;;;;8.15;2.83;;;19.50;57.30;;;;;;5050921;28;20493;-60
2023/12/11 06:23:22;;;;;;;9.70;2.80;;;19.60;58.10;;;;;;5053286;28;20090;-60
2023/12/11 06:25:48;;;;;;;7.88;2.45;;;19.60;57.30;;;;;;5017601;28;20030;-60
2023/12/11 06:28:14;;;;;;;6.85;2.72;;;19.60;57.30;;;;;;5052090;28;20365;-60
2023/12/11 06:30:39;;;;;;;5.70;2.70;;;19.60;57.50;;;;;;5019658;28;20377;-59
2023/12/11 06:33:05;;;;;;;12.95;3.55;;;19.60;57.90;;;;;;5053201;28;20439;-58
2023/12/11 06:35:31;;;;;;;6.60;2.65;;;19.60;58.20;;;;;;5051276;28;20083;-54
2023/12/11 06:37:57;;;;;;;6.63;2.78;;;19.60;57.30;;;;;;5049405;28;20032;-57
2023/12/11 06:40:23;;;;;;;12.23;3.35;;;19.60;58.00;;;;;;5042078;28;20108;-57
2023/12/11 06:42:48;;;;;;;7.85;2.88;;;19.60;58.30;;;;;;5051222;28;20013;-60
2023/12/11 06:45:14;;;;;;;7.13;3.00;;;19.60;57.60;;;;;;5052305;28;20019;-60
2023/12/11 06:47:40;;;;;;;9.52;3.05;;;19.60;57.80;;;;;;5051598;28;20017;-60
2023/12/11 06:50:06;;;;;;;9.05;2.60;;;19.60;58.90;;;;;;5050911;28;20021;-60
2023/12/11 06:52:32;;;;;;;12.13;2.95;;;19.60;58.10;;;;;;5052183;28;20033;-60
2023/12/11 06:54:58;;;;;;;7.35;2.20;;;19.60;58.20;;;;;;5052818;28;20021;-60
2023/12/11 06:57:24;;;;;;;9.73;2.90;;;19.60;58.00;;;;;;5050382;28;20024;-60
2023/12/11 06:59:49;;;;;;;9.30;3.00;;;19.60;58.20;;;;;;5051572;28;20029;-60
2023/12/11 07:02:15;;;;;;;9.50;3.05;;;19.50;58.00;;;;;;5050688;28;20103;-60
2023/12/11 07:04:42;;;;;;;9.40;2.88;;;19.50;58.20;;;;;;5050409;28;20021;-60
2023/12/11 07:07:08;;;;;;;7.78;3.13;;;19.50;59.60;;;;;;5049929;28;20446;-60
2023/12/11 07:09:34;;;;;;;10.23;2.95;;;19.50;57.90;;;;;;5051721;28;20047;-59
2023/12/11 07:11:59;;;;;;;6.90;3.15;;;19.50;57.80;;;;;;5050681;28;20468;-60
2023/12/11 07:14:25;;;;;;;10.70;2.97;;;19.50;57.90;;;;;;5045652;28;20473;-60
2023/12/11 07:16:51;;;;;;;8.02;2.97;;;19.50;58.00;;;;;;5052868;28;20070;-59
2023/12/11 07:19:19;;;;;;;13.32;3.50;;;19.50;58.00;;;;;;5050361;28;20585;-60
2023/12/11 07:21:45;;;;;;;6.57;2.78;;;19.50;57.90;;;;;;5050881;28;20408;-57
2023/12/11 07:24:11;;;;;;;8.43;3.20;;;19.50;58.10;;;;;;5037757;28;20455;-60
2023/12/11 07:26:37;;;;;;;11.13;3.13;;;19.50;57.90;;;;;;5051585;28;20025;-60
2023/12/11 07:29:04;;;;;;;7.70;3.35;;;19.50;57.70;;;;;;5047384;28;20147;-60
2023/12/11 07:31:30;;;;;;;8.23;3.55;;;19.60;57.70;;;;;;5051244;28;20085;-59
2023/12/11 07:33:56;;;;;;;6.60;3.17;;;19.50;57.80;;;;;;5033914;28;20020;-60
2023/12/11 07:36:24;;;;;;;10.43;3.42;;;19.50;57.80;;;;;;5051773;28;20419;-59
2023/12/11 07:38:50;;;;;;;6.97;3.20;;;19.50;58.20;;;;;;5043702;28;20033;-60
2023/12/11 07:41:22;;;;;;;14.75;3.85;;;19.60;57.50;;;;;;5051230;28;20400;-60
2023/12/11 07:43:49;;;;;;;8.45;3.17;;;19.60;57.70;;;;;;5034134;28;20040;-60
2023/12/11 07:46:19;;;;;;;7.78;3.15;;;19.50;57.90;;;;;;5051559;28;20511;-60
2023/12/11 07:48:45;;;;;;;;;;;19.60;58.20;;;;;;5052164;28;20033;-59
2023/12/11 07:51:20;;;;;;;10.95;3.50;;;19.60;57.30;;;;;;5053172;28;19920;-60
2023/12/11 07:53:47;;;;;;;10.20;3.60;;;19.60;58.10;;;;;;5052937;28;20519;-57
2023/12/11 07:56:20;;;;;;;9.90;3.97;;;19.60;57.50;;;;;;5055880;28;20036;-60
2023/12/11 07:58:46;;;;;;;11.23;3.88;;;19.60;57.40;;;;;;5049862;28;20025;-60
2023/12/11 08:01:12;;;;;;;9.35;3.90;;;19.60;57.50;;;;;;5037379;28;20040;-58
2023/12/11 08:03:38;;;;;;;11.43;4.32;;;19.70;57.40;;;;;;5031307;28;20032;-59
2023/12/11 08:06:04;;;;;;;16.55;4.53;;;19.70;57.30;;;;;;5031478;28;20035;-59
2023/12/11 08:08:30;;;;;;;18.35;5.43;;;19.70;57.30;;;;;;5047428;28;20024;-56
2023/12/11 08:10:56;;;;;;;13.07;3.92;;;19.70;57.50;;;;;;5040918;28;20404;-65
2023/12/11 08:13:22;;;;;;;27.92;5.78;;;19.70;58.90;;;;;;5058161;28;20017;-55
2023/12/11 08:15:47;;;;;;;21.40;5.68;;;19.80;58.40;;;;;;5052558;28;20515;-61
2023/12/11 08:18:14;;;;;;;25.00;5.82;;;19.80;58.60;;;;;;5051538;28;20515;-60
2023/12/11 08:20:40;;;;;;;34.75;8.80;;;19.90;58.50;;;;;;5050813;28;20025;-60
2023/12/11 08:23:05;;;;;;;23.33;7.72;;;19.80;58.30;;;;;;5051085;28;20025;-60
2023/12/11 08:25:31;;;;;;;28.40;7.65;;;19.90;59.00;;;;;;5051160;28;20393;-60
2023/12/11 08:27:57;;;;;;;28.70;7.85;;;19.90;59.10;;;;;;5051131;28;20102;-60
2023/12/11 08:30:23;;;;;;;34.40;8.93;;;19.80;58.80;;;;;;5039462;28;20032;-61
2023/12/11 08:32:49;;;;;;;28.88;8.90;;;19.90;59.00;;;;;;5050814;28;20451;-58
2023/12/11 08:35:15;;;;;;;24.40;7.82;;;19.90;59.30;;;;;;5050806;28;20044;-60
2023/12/11 08:37:40;;;;;;;21.88;6.60;;;19.80;58.80;;;;;;5041132;28;20026;-60
2023/12/11 08:40:07;;;;;;;27.40;7.68;;;19.80;58.70;;;;;;5031362;28;20025;-60
2023/12/11 08:42:35;;;;;;;29.40;8.07;;;19.80;58.70;;;;;;5030922;28;20029;-59
2023/12/11 08:45:01;;;;;;;29.40;8.45;;;19.80;58.60;;;;;;5031305;28;20029;-60
2023/12/11 08:47:29;;;;;;;29.13;7.97;;;19.70;58.70;;;;;;5031328;28;20095;-60
2023/12/11 08:49:55;;;;;;;32.00;8.43;;;19.80;58.90;;;;;;5031298;28;20493;-58
2023/12/11 08:52:20;;;;;;;27.85;8.45;;;19.70;58.80;;;;;;5030880;28;20080;-59
2023/12/11 08:54:47;;;;;;;25.90;6.82;;;19.70;59.20;;;;;;5031279;28;20101;-60
2023/12/11 08:57:12;;;;;;;38.55;8.50;;;19.70;59.00;;;;;;5031245;28;20068;-59
2023/12/11 08:59:38;;;;;;;23.88;7.10;;;19.70;59.10;;;;;;5031187;28;20022;-60
2023/12/11 09:02:04;;;;;;;22.15;6.68;;;19.70;59.20;;;;;;5030832;28;20029;-60
2023/12/11 09:04:30;;;;;;;27.42;7.35;;;19.70;59.20;;;;;;5031026;28;20033;-57
2023/12/11 09:06:56;;;;;;;19.73;6.55;;;19.70;59.40;;;;;;5031200;28;20029;-60
2023/12/11 09:09:22;;;;;;;19.27;5.88;;;19.70;59.30;;;;;;5031248;28;20511;-59
2023/12/11 09:11:48;;;;;;;27.27;7.40;;;19.70;59.20;;;;;;5030738;28;20037;-58
2023/12/11 09:14:14;;;;;;;25.05;7.40;;;19.70;59.20;;;;;;5033862;28;20442;-60
2023/12/11 09:16:40;;;;;;;25.92;7.65;;;19.70;59.20;;;;;;5034978;28;20049;-59
2023/12/11 09:19:06;;;;;;;23.35;7.05;;;19.70;59.00;;;;;;5034917;28;20052;-56
2023/12/11 09:21:31;;;;;;;29.35;7.88;;;19.70;58.80;;;;;;5034583;28;20052;-60
2023/12/11 09:23:57;;;;;;;22.73;7.28;;;19.70;59.00;;;;;;5034623;28;20045;-57
2023/12/11 09:26:23;;;;;;;24.88;7.80;;;19.70;59.10;;;;;;5017118;28;20033;-60
2023/12/11 09:28:49;;;;;;;19.10;6.55;;;19.80;59.30;;;;;;5034763;28;20511;-60
2023/12/11 09:31:23;;;;;;;25.23;8.02;;;19.80;59.00;;;;;;5034247;28;20029;-59
2023/12/11 09:33:49;;;;;;;27.13;7.70;;;19.80;59.10;;;;;;5034622;28;20030;-59
2023/12/11 09:36:15;;;;;;;23.45;7.18;;;19.80;59.00;;;;;;5034699;28;20036;-58
2023/12/11 09:38:42;;;;;;;23.20;6.97;;;19.80;59.30;;;;;;5034518;28;20091;-57
2023/12/11 09:41:08;;;;;;;20.88;6.03;;;19.80;59.40;;;;;;5034165;28;20041;-59
2023/12/11 09:43:36;;;;;;;23.52;6.80;;;19.80;60.10;;;;;;5034384;28;20029;-54
2023/12/11 09:46:05;;;;;;;23.90;6.95;;;19.80;60.00;;;;;;5034396;28;20490;-59
2023/12/11 09:48:31;;;;;;;21.10;6.70;;;19.90;62.30;;;;;;5016766;28;20489;-58
2023/12/11 09:50:57;;;;;;;25.38;6.90;;;19.90;64.40;;;;;;5033961;28;20117;-60
2023/12/11 09:53:26;;;;;;;19.88;6.47;;;20.10;64.00;;;;;;5034168;28;20147;-59
2023/12/11 09:55:52;;;;;;;20.90;6.13;;;20.20;64.50;;;;;;5034311;28;20049;-57
2023/12/11 09:58:20;;;;;;;24.15;6.35;;;20.20;63.30;;;;;;5034132;28;20038;-60
2023/12/11 10:00:47;;;;;;;22.88;6.28;;;20.20;64.70;;;;;;5033829;28;20033;-56
2023/12/11 10:03:13;;;;;;;29.55;6.55;;;20.30;65.00;;;;;;5034012;28;20049;-59
2023/12/11 10:05:39;;;;;;;19.00;6.82;;;20.20;61.60;;;;;;5039216;28;20041;-59
2023/12/11 10:08:05;;;;;;;21.90;6.53;;;20.20;63.70;;;;;;5049215;28;20028;-56
2023/12/11 10:10:33;;;;;;;22.88;6.28;;;20.10;63.50;;;;;;5043181;28;20098;-59
2023/12/11 10:13:00;;;;;;;17.92;6.15;;;20.10;63.80;;;;;;5044192;28;20075;-59
2023/12/11 10:15:28;;;;;;;18.85;6.40;;;20.10;63.80;;;;;;5034083;28;20087;-59
2023/12/11 10:18:01;;;;;;;21.08;5.97;;;20.10;62.90;;;;;;5048010;28;20283;-58
2023/12/11 10:20:26;;;;;;;25.25;6.43;;;20.10;61.90;;;;;;5037832;28;20044;-58
2023/12/11 10:22:52;;;;;;;21.20;7.00;;;20.10;61.70;;;;;;5045279;28;20559;-55
2023/12/11 10:25:28;;;;;;;18.35;6.05;;;20.00;61.60;;;;;;5039401;28;20036;-57
2023/12/11 10:28:06;;;;;;;22.63;6.43;;;20.00;61.70;;;;;;5041726;28;20518;-55
2023/12/11 10:30:32;;;;;;;20.52;6.35;;;20.00;61.70;;;;;;5044053;28;20396;-58
2023/12/11 10:33:04;;;;;;;16.75;5.60;;;20.00;61.70;;;;;;5015339;28;20035;-57
2023/12/11 10:35:31;;;;;;;18.23;5.25;;;19.90;61.60;;;;;;5049412;28;20025;-57
2023/12/11 10:38:03;;;;;;;16.77;5.55;;;19.90;61.50;;;;;;5045880;28;20148;-56
2023/12/11 10:40:40;;;;;;;23.60;6.20;;;20.00;61.60;;;;;;5032034;28;20024;-58
2023/12/11 10:43:06;;;;;;;22.73;5.82;;;19.90;61.50;;;;;;5049660;28;20104;-58
2023/12/11 10:45:33;;;;;;;17.40;5.90;;;19.90;61.60;;;;;;5034242;28;20033;-58
2023/12/11 10:48:00;;;;;;;15.57;5.20;;;19.90;61.60;;;;;;5040188;28;20021;-58
2023/12/11 10:50:26;;;;;;;15.20;5.30;;;19.90;61.60;;;;;;5046059;28;20025;-58
2023/12/11 10:52:52;;;;;;;13.70;4.93;;;19.90;61.50;;;;;;5037100;28;20397;-58
2023/12/11 10:55:19;;;;;;;15.30;5.05;;;19.90;61.80;;;;;;5048493;28;20025;-58
2023/12/11 10:57:46;;;;;;;19.40;5.40;;;19.90;61.70;;;;;;5041060;28;20150;-58
2023/12/11 11:00:14;;;;;;;13.75;5.25;;;19.90;61.70;;;;;;5037708;28;20056;-58
2023/12/11 11:02:44;;;;;;;13.68;4.38;;;19.90;61.70;;;;;;5037453;28;20029;-58
2023/12/11 11:05:13;;;;;;;15.18;5.22;;;19.90;61.70;;;;;;5047963;28;20021;-58
2023/12/11 11:07:49;;;;;;;18.23;5.50;;;19.90;62.20;;;;;;5040776;28;20033;-58
2023/12/11 11:10:21;;;;;;;13.63;4.75;;;19.80;61.60;;;;;;5031712;28;20021;-57
2023/12/11 11:13:14;;;;;;;14.88;4.60;;;19.80;61.60;;;;;;5031697;28;20482;-58
2023/12/11 11:15:40;;;;;;;12.00;5.15;;;19.80;61.70;;;;;;5048888;28;20506;-58
2023/12/11 11:18:07;;;;;;;17.98;5.35;;;19.80;61.90;;;;;;5031742;28;20033;-58
2023/12/11 11:20:35;;;;;;;19.73;5.15;;;19.80;61.80;;;;;;5030760;28;20026;-58
2023/12/11 11:23:18;;;;;;;15.10;5.20;;;19.80;61.90;;;;;;5066190;22;20029;-59
2023/12/11 11:25:50;;;;;;;16.17;5.10;;;19.80;61.70;;;;;;5027373;28;20028;-57
2023/12/11 11:28:40;;;;;;;15.50;5.07;;;19.80;61.60;;;;;;5025699;28;20030;-58
2023/12/11 11:31:10;;;;;;;14.25;4.57;;;19.90;61.70;;;;;;5028579;28;20401;-59
2023/12/11 11:33:46;;;;;;;13.45;4.68;;;19.90;61.90;;;;;;5022638;28;20049;-59
2023/12/11 11:36:20;;;;;;;17.05;5.05;;;19.90;61.50;;;;;;5008800;28;20432;-59
2023/12/11 11:38:57;;;;;;;13.15;4.97;;;19.90;61.70;;;;;;5009995;28;20109;-59
2023/12/11 11:41:23;;;;;;;15.00;5.53;;;19.90;61.90;;;;;;5009032;28;20635;-55
2023/12/11 11:44:01;;;;;;;16.73;4.82;;;20.00;62.10;;;;;;5009662;28;20061;-59
2023/12/11 11:46:28;;;;;;;22.67;5.05;;;20.10;61.40;;;;;;5011462;28;20040;-54
2023/12/11 11:48:53;;;;;;;14.38;4.97;;;20.10;61.60;;;;;;5012490;28;20133;-57
2023/12/11 11:51:22;;;;;;;14.57;4.93;;;20.00;61.10;;;;;;5011964;28;20104;-58
2023/12/11 11:53:57;;;;;;;21.73;5.10;;;20.10;60.70;;;;;;5012313;28;20037;-60
2023/12/11 11:56:23;;;;;;;11.70;4.95;;;20.10;61.20;;;;;;5012090;28;20439;-58
2023/12/11 11:58:49;;;;;;;15.27;4.85;;;20.00;60.60;;;;;;5012114;28;20022;-58
2023/12/11 12:01:15;;;;;;;11.77;4.97;;;20.00;60.80;;;;;;5011927;28;20484;-55
2023/12/11 12:03:41;;;;;;;24.45;5.97;;;20.00;61.00;;;;;;5012195;28;20080;-57
2023/12/11 12:06:13;;;;;;;18.13;5.80;;;20.20;61.60;;;;;;5012272;28;20034;-57
2023/12/11 12:08:42;;;;;;;14.30;5.05;;;20.30;60.30;;;;;;5012227;28;20034;-54
2023/12/11 12:11:08;;;;;;;16.27;5.25;;;20.20;60.10;;;;;;5011763;28;20525;-56
2023/12/11 12:13:36;;;;;;;16.02;5.22;;;20.10;60.30;;;;;;4994510;28;20053;-54
2023/12/11 12:16:02;;;;;;;11.48;4.90;;;20.10;61.40;;;;;;5011944;28;20022;-58
2023/12/11 12:18:28;;;;;;;13.38;6.20;;;20.10;61.40;;;;;;5011922;28;20512;-56
2023/12/11 12:21:05;;;;;;;14.52;5.78;;;20.30;61.60;;;;;;5011612;28;20025;-58
2023/12/11 12:23:31;;;;;;;24.15;6.25;;;20.30;61.60;;;;;;5011598;28;20390;-60
2023/12/11 12:25:59;;;;;;;16.30;5.82;;;20.20;61.20;;;;;;5011792;28;20061;-58
2023/12/11 12:28:26;;;;;;;24.90;6.13;;;20.20;61.50;;;;;;4994328;28;20025;-59
2023/12/11 12:30:53;;;;;;;17.35;5.80;;;20.30;62.00;;;;;;5011262;28;20500;-59
2023/12/11 12:33:20;;;;;;;25.25;6.10;;;20.40;61.10;;;;;;5011749;28;20026;-59
2023/12/11 12:35:48;;;;;;;21.02;5.60;;;20.20;60.30;;;;;;5008438;28;20013;-58
2023/12/11 12:38:14;;;;;;;37.25;5.60;;;19.90;58.90;;;;;;5007388;28;20022;-59
2023/12/11 12:40:41;;;;;;;22.60;4.07;;;19.80;58.00;;;;;;5007746;28;20049;-58